sensor_id;sensor_type;location;lat;lon;timestamp;pressure;altitude;pressure_sealevel;temperature;humidity
43488;BME280;29078;41.932;25.554;2023-02-02T00:00:50;99630.94;;;5.09;49.69
43488;BME280;29078;41.932;25.554;2023-02-02T00:03:16;99547.84;;;4.45;49.67
43488;BME280;29078;41.932;25.554;2023-02-02T00:05:49;99588.72;;;4.85;49.78
43488;BME280;29078;41.932;25.554;2023-02-02T00:08:16;99521.31;;;4.40;49.80
43488;BME280;29078;41.932;25.554;2023-02-02T00:10:42;99616.22;;;5.08;49.84
43488;BME280;29078;41.932;25.554;2023-02-02T00:13:08;99630.13;;;5.09;49.58
43488;BME280;29078;41.932;25.554;2023-02-02T00:15:33;99622.53;;;5.06;49.91
43488;BME280;29078;41.932;25.554;2023-02-02T00:17:59;99630.41;;;4.96;49.87
43488;BME280;29078;41.932;25.554;2023-02-02T00:20:24;99541.81;;;4.45;49.88
43488;BME280;29078;41.932;25.554;2023-02-02T00:22:49;99563.84;;;4.62;49.96
43488;BME280;29078;41.932;25.554;2023-02-02T00:25:15;99550.34;;;4.66;49.89
43488;BME280;29078;41.932;25.554;2023-02-02T00:27:40;99612.22;;;5.04;49.88
43488;BME280;29078;41.932;25.554;2023-02-02T00:30:06;99610.84;;;5.10;49.87
43488;BME280;29078;41.932;25.554;2023-02-02T00:32:32;99466.03;;;4.16;49.82
43488;BME280;29078;41.932;25.554;2023-02-02T00:34:58;99561.06;;;4.73;49.67
43488;BME280;29078;41.932;25.554;2023-02-02T00:37:23;99604.78;;;5.00;49.52
43488;BME280;29078;41.932;25.554;2023-02-02T00:39:48;99528.34;;;4.50;49.40
43488;BME280;29078;41.932;25.554;2023-02-02T00:42:14;99554.75;;;4.66;49.56
43488;BME280;29078;41.932;25.554;2023-02-02T00:44:39;99538.38;;;4.54;49.58
43488;BME280;29078;41.932;25.554;2023-02-02T00:47:23;99574.97;;;4.73;49.55
43488;BME280;29078;41.932;25.554;2023-02-02T00:49:48;99626.28;;;5.03;49.83
43488;BME280;29078;41.932;25.554;2023-02-02T00:52:14;99474.84;;;4.05;49.68
43488;BME280;29078;41.932;25.554;2023-02-02T00:54:39;99628.75;;;5.05;49.75
43488;BME280;29078;41.932;25.554;2023-02-02T00:57:05;99623.38;;;4.97;49.95
43488;BME280;29078;41.932;25.554;2023-02-02T00:59:30;99539.09;;;4.46;50.23
43488;BME280;29078;41.932;25.554;2023-02-02T01:01:56;99613.22;;;4.94;49.81
43488;BME280;29078;41.932;25.554;2023-02-02T01:04:21;99619.53;;;5.01;50.09
43488;BME280;29078;41.932;25.554;2023-02-02T01:06:47;99550.19;;;4.39;49.80
43488;BME280;29078;41.932;25.554;2023-02-02T01:09:12;99568.38;;;4.60;49.61
43488;BME280;29078;41.932;25.554;2023-02-02T01:11:37;99570.44;;;4.56;50.01
43488;BME280;29078;41.932;25.554;2023-02-02T01:14:03;99596.44;;;4.67;49.73
43488;BME280;29078;41.932;25.554;2023-02-02T01:16:29;99573.19;;;4.55;49.33
43488;BME280;29078;41.932;25.554;2023-02-02T01:18:54;99556.66;;;4.35;49.35
43488;BME280;29078;41.932;25.554;2023-02-02T01:21:20;99620.25;;;4.84;49.36
43488;BME280;29078;41.932;25.554;2023-02-02T01:23:46;99630.97;;;4.90;49.42
43488;BME280;29078;41.932;25.554;2023-02-02T01:26:12;99595.47;;;4.68;49.38
43488;BME280;29078;41.932;25.554;2023-02-02T01:28:39;99627.66;;;4.98;49.63
43488;BME280;29078;41.932;25.554;2023-02-02T01:31:10;99606.47;;;4.82;49.25
43488;BME280;29078;41.932;25.554;2023-02-02T01:33:36;99630.69;;;4.93;49.12
43488;BME280;29078;41.932;25.554;2023-02-02T01:36:06;99602.34;;;4.79;49.23
43488;BME280;29078;41.932;25.554;2023-02-02T01:38:33;99579.94;;;4.57;49.25
43488;BME280;29078;41.932;25.554;2023-02-02T01:40:59;99613.38;;;4.83;49.21
43488;BME280;29078;41.932;25.554;2023-02-02T01:43:47;99571.00;;;4.60;49.22
43488;BME280;29078;41.932;25.554;2023-02-02T01:46:18;99643.34;;;5.07;49.23
43488;BME280;29078;41.932;25.554;2023-02-02T01:49:11;99629.84;;;5.02;49.07
43488;BME280;29078;41.932;25.554;2023-02-02T01:51:41;99638.22;;;5.16;49.09
43488;BME280;29078;41.932;25.554;2023-02-02T01:54:14;99644.56;;;5.13;48.89
43488;BME280;29078;41.932;25.554;2023-02-02T01:56:45;99614.44;;;4.99;49.14
43488;BME280;29078;41.932;25.554;2023-02-02T01:59:15;99578.25;;;4.85;49.21
43488;BME280;29078;41.932;25.554;2023-02-02T02:01:42;99608.91;;;5.02;49.29
43488;BME280;29078;41.932;25.554;2023-02-02T02:04:08;99555.56;;;4.66;49.13
43488;BME280;29078;41.932;25.554;2023-02-02T02:06:33;99617.72;;;5.11;48.89
43488;BME280;29078;41.932;25.554;2023-02-02T02:09:01;99626.94;;;5.15;49.14
43488;BME280;29078;41.932;25.554;2023-02-02T02:11:28;99634.50;;;5.28;48.99
43488;BME280;29078;41.932;25.554;2023-02-02T02:13:56;99640.28;;;5.31;48.71
43488;BME280;29078;41.932;25.554;2023-02-02T02:22:23;99587.16;;;5.02;49.14
43488;BME280;29078;41.932;25.554;2023-02-02T02:31:01;99631.31;;;5.34;49.43
43488;BME280;29078;41.932;25.554;2023-02-02T02:38:54;99571.06;;;4.97;49.64
43488;BME280;29078;41.932;25.554;2023-02-02T02:41:33;99595.81;;;5.12;49.83
43488;BME280;29078;41.932;25.554;2023-02-02T02:44:06;99633.09;;;5.43;49.75
43488;BME280;29078;41.932;25.554;2023-02-02T02:46:34;99642.16;;;5.49;50.05
43488;BME280;29078;41.932;25.554;2023-02-02T02:49:00;99637.47;;;5.52;50.03
43488;BME280;29078;41.932;25.554;2023-02-02T03:08:10;99556.81;;;5.19;50.11
43488;BME280;29078;41.932;25.554;2023-02-02T03:10:43;99598.88;;;5.54;50.64
43488;BME280;29078;41.932;25.554;2023-02-02T03:13:11;99613.72;;;5.63;50.53
43488;BME280;29078;41.932;25.554;2023-02-02T03:15:43;99608.47;;;5.63;49.96
43488;BME280;29078;41.932;25.554;2023-02-02T03:18:10;99536.97;;;5.26;50.16
43488;BME280;29078;41.932;25.554;2023-02-02T03:20:36;99513.28;;;5.18;49.60
43488;BME280;29078;41.932;25.554;2023-02-02T03:23:02;99568.31;;;5.45;49.38
43488;BME280;29078;41.932;25.554;2023-02-02T03:25:27;99535.00;;;5.37;49.45
43488;BME280;29078;41.932;25.554;2023-02-02T03:27:53;99533.19;;;5.38;49.17
43488;BME280;29078;41.932;25.554;2023-02-02T03:30:18;99587.72;;;5.80;49.07
43488;BME280;29078;41.932;25.554;2023-02-02T03:32:45;99554.06;;;5.57;49.01
43488;BME280;29078;41.932;25.554;2023-02-02T03:35:10;99491.59;;;5.35;48.79
43488;BME280;29078;41.932;25.554;2023-02-02T03:37:36;99612.59;;;6.03;48.50
43488;BME280;29078;41.932;25.554;2023-02-02T03:40:02;99573.88;;;5.87;48.80
43488;BME280;29078;41.932;25.554;2023-02-02T03:42:27;99553.56;;;5.71;48.37
43488;BME280;29078;41.932;25.554;2023-02-02T03:44:53;99529.59;;;5.66;48.89
43488;BME280;29078;41.932;25.554;2023-02-02T03:47:18;99487.34;;;5.34;48.91
43488;BME280;29078;41.932;25.554;2023-02-02T03:49:43;99616.56;;;6.07;48.86
43488;BME280;29078;41.932;25.554;2023-02-02T03:52:09;99572.19;;;5.68;48.67
43488;BME280;29078;41.932;25.554;2023-02-02T03:54:34;99589.78;;;5.76;48.77
43488;BME280;29078;41.932;25.554;2023-02-02T03:57:00;99508.03;;;5.27;49.04
43488;BME280;29078;41.932;25.554;2023-02-02T03:59:25;99583.59;;;5.77;48.77
43488;BME280;29078;41.932;25.554;2023-02-02T04:01:50;99528.25;;;5.35;48.50
43488;BME280;29078;41.932;25.554;2023-02-02T04:04:16;99497.03;;;5.14;48.88
43488;BME280;29078;41.932;25.554;2023-02-02T04:06:41;99513.03;;;5.21;48.99
43488;BME280;29078;41.932;25.554;2023-02-02T04:09:07;99589.56;;;5.69;49.03
43488;BME280;29078;41.932;25.554;2023-02-02T04:11:32;99615.41;;;5.82;48.73
43488;BME280;29078;41.932;25.554;2023-02-02T04:13:58;99485.94;;;5.02;49.29
43488;BME280;29078;41.932;25.554;2023-02-02T04:16:23;99614.88;;;5.79;48.87
43488;BME280;29078;41.932;25.554;2023-02-02T04:18:48;99538.09;;;5.23;49.35
43488;BME280;29078;41.932;25.554;2023-02-02T04:21:14;99613.81;;;5.71;49.29
43488;BME280;29078;41.932;25.554;2023-02-02T04:23:40;99528.88;;;5.09;49.48
43488;BME280;29078;41.932;25.554;2023-02-02T04:26:05;99613.84;;;5.62;49.84
43488;BME280;29078;41.932;25.554;2023-02-02T04:28:30;99598.06;;;5.44;49.84
43488;BME280;29078;41.932;25.554;2023-02-02T04:30:56;99607.16;;;5.50;49.64
43488;BME280;29078;41.932;25.554;2023-02-02T04:33:23;99519.44;;;4.89;49.78
43488;BME280;29078;41.932;25.554;2023-02-02T04:35:49;99519.59;;;4.88;49.90
43488;BME280;29078;41.932;25.554;2023-02-02T04:38:14;99578.84;;;5.16;50.50
43488;BME280;29078;41.932;25.554;2023-02-02T04:40:42;99444.13;;;4.36;50.36
43488;BME280;29078;41.932;25.554;2023-02-02T04:43:08;99617.38;;;5.43;50.37
43488;BME280;29078;41.932;25.554;2023-02-02T04:45:34;99621.25;;;5.39;50.54
43488;BME280;29078;41.932;25.554;2023-02-02T04:47:59;99612.59;;;5.29;50.61
43488;BME280;29078;41.932;25.554;2023-02-02T04:50:25;99536.78;;;4.90;50.36
43488;BME280;29078;41.932;25.554;2023-02-02T04:52:50;99622.94;;;5.30;50.55
43488;BME280;29078;41.932;25.554;2023-02-02T04:55:15;99593.47;;;5.09;50.59
43488;BME280;29078;41.932;25.554;2023-02-02T04:57:41;99631.06;;;5.27;51.14
43488;BME280;29078;41.932;25.554;2023-02-02T05:00:07;99624.88;;;5.28;50.65
43488;BME280;29078;41.932;25.554;2023-02-02T05:02:36;99533.78;;;4.85;50.28
43488;BME280;29078;41.932;25.554;2023-02-02T05:05:01;99613.81;;;5.34;49.98
43488;BME280;29078;41.932;25.554;2023-02-02T05:07:27;99478.25;;;4.54;49.67
43488;BME280;29078;41.932;25.554;2023-02-02T05:09:52;99574.16;;;5.20;49.67
43488;BME280;29078;41.932;25.554;2023-02-02T05:12:17;99575.66;;;5.32;49.49
43488;BME280;29078;41.932;25.554;2023-02-02T05:14:43;99620.22;;;5.59;49.63
43488;BME280;29078;41.932;25.554;2023-02-02T05:17:08;99598.22;;;5.42;49.39
43488;BME280;29078;41.932;25.554;2023-02-02T05:19:33;99586.44;;;5.29;49.15
43488;BME280;29078;41.932;25.554;2023-02-02T05:21:59;99621.03;;;5.60;49.29
43488;BME280;29078;41.932;25.554;2023-02-02T05:24:24;99601.53;;;5.45;49.22
43488;BME280;29078;41.932;25.554;2023-02-02T05:26:52;99502.41;;;4.75;49.53
43488;BME280;29078;41.932;25.554;2023-02-02T05:29:19;99573.66;;;5.06;49.27
43488;BME280;29078;41.932;25.554;2023-02-02T05:31:44;99620.16;;;5.32;49.37
43488;BME280;29078;41.932;25.554;2023-02-02T05:34:09;99628.44;;;5.27;49.73
43488;BME280;29078;41.932;25.554;2023-02-02T05:36:35;99618.66;;;5.20;49.75
43488;BME280;29078;41.932;25.554;2023-02-02T05:39:00;99595.16;;;5.00;49.71
43488;BME280;29078;41.932;25.554;2023-02-02T05:41:26;99615.66;;;5.05;50.01
43488;BME280;29078;41.932;25.554;2023-02-02T05:43:51;99633.97;;;5.24;50.06
43488;BME280;29078;41.932;25.554;2023-02-02T05:46:17;99639.34;;;5.23;50.27
43488;BME280;29078;41.932;25.554;2023-02-02T05:48:42;99569.06;;;4.52;50.15
43488;BME280;29078;41.932;25.554;2023-02-02T05:51:16;99645.25;;;5.15;50.45
43488;BME280;29078;41.932;25.554;2023-02-02T05:53:43;99633.84;;;5.06;50.75
43488;BME280;29078;41.932;25.554;2023-02-02T05:56:09;99615.69;;;4.95;50.51
43488;BME280;29078;41.932;25.554;2023-02-02T05:58:35;99576.75;;;4.73;50.42
43488;BME280;29078;41.932;25.554;2023-02-02T06:01:00;99535.22;;;4.51;50.48
43488;BME280;29078;41.932;25.554;2023-02-02T06:03:26;99594.91;;;4.84;50.26
43488;BME280;29078;41.932;25.554;2023-02-02T06:05:51;99646.22;;;5.24;50.40
43488;BME280;29078;41.932;25.554;2023-02-02T06:08:17;99566.03;;;4.66;50.58
43488;BME280;29078;41.932;25.554;2023-02-02T06:10:42;99607.44;;;4.90;50.53
43488;BME280;29078;41.932;25.554;2023-02-02T06:13:08;99593.25;;;4.93;50.04
43488;BME280;29078;41.932;25.554;2023-02-02T06:15:34;99628.44;;;5.18;50.27
43488;BME280;29078;41.932;25.554;2023-02-02T06:18:00;99657.91;;;5.39;50.06
43488;BME280;29078;41.932;25.554;2023-02-02T06:20:26;99653.50;;;5.39;50.35
43488;BME280;29078;41.932;25.554;2023-02-02T06:22:52;99636.16;;;5.19;50.24
43488;BME280;29078;41.932;25.554;2023-02-02T06:25:17;99626.94;;;5.15;50.13
43488;BME280;29078;41.932;25.554;2023-02-02T06:27:43;99616.63;;;5.23;50.32
43488;BME280;29078;41.932;25.554;2023-02-02T06:30:14;99672.69;;;5.67;50.03
43488;BME280;29078;41.932;25.554;2023-02-02T06:32:39;99649.56;;;5.63;50.21
43488;BME280;29078;41.932;25.554;2023-02-02T06:35:05;99634.69;;;5.54;50.00
43488;BME280;29078;41.932;25.554;2023-02-02T06:37:31;99678.81;;;5.86;49.97
43488;BME280;29078;41.932;25.554;2023-02-02T06:39:58;99672.34;;;5.90;49.37
43488;BME280;29078;41.932;25.554;2023-02-02T06:42:24;99685.56;;;5.88;49.35
43488;BME280;29078;41.932;25.554;2023-02-02T06:44:49;99588.72;;;5.41;49.13
43488;BME280;29078;41.932;25.554;2023-02-02T06:47:14;99659.25;;;5.90;48.83
43488;BME280;29078;41.932;25.554;2023-02-02T06:49:40;99602.78;;;5.68;48.82
43488;BME280;29078;41.932;25.554;2023-02-02T06:52:06;99609.88;;;5.85;48.69
43488;BME280;29078;41.932;25.554;2023-02-02T06:54:31;99637.78;;;6.14;47.64
43488;BME280;29078;41.932;25.554;2023-02-02T06:56:57;99640.25;;;6.15;47.66
43488;BME280;29078;41.932;25.554;2023-02-02T06:59:22;99635.09;;;6.23;47.41
43488;BME280;29078;41.932;25.554;2023-02-02T07:01:48;99679.69;;;6.59;47.61
43488;BME280;29078;41.932;25.554;2023-02-02T07:04:18;99588.72;;;6.06;47.06
43488;BME280;29078;41.932;25.554;2023-02-02T07:06:44;99682.66;;;6.74;46.45
43488;BME280;29078;41.932;25.554;2023-02-02T07:09:10;99589.47;;;6.16;46.47
43488;BME280;29078;41.932;25.554;2023-02-02T07:11:35;99631.88;;;6.47;46.29
43488;BME280;29078;41.932;25.554;2023-02-02T07:14:01;99608.50;;;6.36;46.30
43488;BME280;29078;41.932;25.554;2023-02-02T07:16:27;99652.66;;;6.76;46.45
43488;BME280;29078;41.932;25.554;2023-02-02T07:18:53;99627.25;;;6.59;46.20
43488;BME280;29078;41.932;25.554;2023-02-02T07:21:20;99682.41;;;7.03;45.81
43488;BME280;29078;41.932;25.554;2023-02-02T07:23:46;99669.59;;;6.99;45.68
43488;BME280;29078;41.932;25.554;2023-02-02T07:26:12;99627.03;;;6.70;46.27
43488;BME280;29078;41.932;25.554;2023-02-02T07:28:39;99691.03;;;7.13;46.41
43488;BME280;29078;41.932;25.554;2023-02-02T07:31:19;99661.13;;;6.88;45.52
43488;BME280;29078;41.932;25.554;2023-02-02T07:33:46;99684.03;;;7.21;45.91
43488;BME280;29078;41.932;25.554;2023-02-02T07:36:13;99622.53;;;6.80;45.43
43488;BME280;29078;41.932;25.554;2023-02-02T07:38:41;99673.53;;;7.21;45.26
43488;BME280;29078;41.932;25.554;2023-02-02T07:41:06;99628.72;;;6.97;45.73
43488;BME280;29078;41.932;25.554;2023-02-02T07:43:32;99589.03;;;6.74;45.62
43488;BME280;29078;41.932;25.554;2023-02-02T07:46:01;99590.22;;;6.80;45.50
43488;BME280;29078;41.932;25.554;2023-02-02T07:48:28;99623.00;;;7.01;45.08
43488;BME280;29078;41.932;25.554;2023-02-02T07:50:58;99689.53;;;7.54;44.99
43488;BME280;29078;41.932;25.554;2023-02-02T07:53:23;99627.56;;;7.17;44.92
43488;BME280;29078;41.932;25.554;2023-02-02T07:55:49;99612.31;;;7.21;45.13
43488;BME280;29078;41.932;25.554;2023-02-02T07:58:14;99693.91;;;7.71;44.71
43488;BME280;29078;41.932;25.554;2023-02-02T08:00:39;99610.34;;;7.23;45.16
43488;BME280;29078;41.932;25.554;2023-02-02T08:03:05;99658.53;;;7.57;44.55
43488;BME280;29078;41.932;25.554;2023-02-02T08:05:30;99687.50;;;7.74;44.39
43488;BME280;29078;41.932;25.554;2023-02-02T08:07:57;99609.69;;;7.21;44.01
43488;BME280;29078;41.932;25.554;2023-02-02T08:10:22;99660.41;;;7.73;43.63
43488;BME280;29078;41.932;25.554;2023-02-02T08:12:47;99693.22;;;7.95;42.80
43488;BME280;29078;41.932;25.554;2023-02-02T08:15:13;99684.69;;;8.01;42.27
43488;BME280;29078;41.932;25.554;2023-02-02T08:17:38;99613.34;;;7.54;42.21
43488;BME280;29078;41.932;25.554;2023-02-02T08:20:04;99649.16;;;7.89;42.56
43488;BME280;29078;41.932;25.554;2023-02-02T08:22:30;99649.81;;;7.91;42.44
43488;BME280;29078;41.932;25.554;2023-02-02T08:24:55;99634.88;;;8.00;42.43
43488;BME280;29078;41.932;25.554;2023-02-02T08:27:20;99684.66;;;8.27;42.02
43488;BME280;29078;41.932;25.554;2023-02-02T08:29:46;99658.00;;;8.22;42.16
43488;BME280;29078;41.932;25.554;2023-02-02T08:32:11;99613.81;;;7.91;41.87
43488;BME280;29078;41.932;25.554;2023-02-02T08:34:36;99648.72;;;8.10;41.30
43488;BME280;29078;41.932;25.554;2023-02-02T08:37:02;99605.50;;;8.04;41.42
43488;BME280;29078;41.932;25.554;2023-02-02T08:39:28;99646.88;;;8.36;41.33
43488;BME280;29078;41.932;25.554;2023-02-02T08:41:54;99644.03;;;8.29;41.49
43488;BME280;29078;41.932;25.554;2023-02-02T08:44:20;99616.41;;;8.25;40.91
43488;BME280;29078;41.932;25.554;2023-02-02T08:46:46;99647.56;;;8.46;40.85
43488;BME280;29078;41.932;25.554;2023-02-02T08:49:12;99651.03;;;8.71;40.89
43488;BME280;29078;41.932;25.554;2023-02-02T08:51:37;99569.72;;;8.27;40.75
43488;BME280;29078;41.932;25.554;2023-02-02T08:54:03;99641.69;;;8.85;40.71
43488;BME280;29078;41.932;25.554;2023-02-02T08:56:28;99587.88;;;8.47;40.46
43488;BME280;29078;41.932;25.554;2023-02-02T08:58:55;99649.28;;;8.96;40.68
43488;BME280;29078;41.932;25.554;2023-02-02T09:01:31;99569.63;;;8.45;40.52
43488;BME280;29078;41.932;25.554;2023-02-02T09:04:01;99673.63;;;9.06;39.97
43488;BME280;29078;41.932;25.554;2023-02-02T09:06:38;99642.69;;;9.08;39.87
43488;BME280;29078;41.932;25.554;2023-02-02T09:09:05;99646.94;;;9.17;40.20
43488;BME280;29078;41.932;25.554;2023-02-02T09:11:31;99587.38;;;8.84;39.79
43488;BME280;29078;41.932;25.554;2023-02-02T09:13:58;99525.22;;;8.42;39.50
43488;BME280;29078;41.932;25.554;2023-02-02T09:16:25;99617.81;;;9.19;38.96
43488;BME280;29078;41.932;25.554;2023-02-02T09:18:51;99570.59;;;8.93;38.77
43488;BME280;29078;41.932;25.554;2023-02-02T09:21:18;99555.94;;;8.90;38.59
43488;BME280;29078;41.932;25.554;2023-02-02T09:23:44;99627.34;;;9.28;38.50
43488;BME280;29078;41.932;25.554;2023-02-02T09:26:18;99620.75;;;9.32;38.22
43488;BME280;29078;41.932;25.554;2023-02-02T09:28:49;99515.66;;;8.74;37.36
43488;BME280;29078;41.932;25.554;2023-02-02T09:31:16;99586.69;;;9.14;37.77
43488;BME280;29078;41.932;25.554;2023-02-02T09:33:42;99570.38;;;9.19;38.13
43488;BME280;29078;41.932;25.554;2023-02-02T09:36:13;99638.47;;;9.71;38.09
43488;BME280;29078;41.932;25.554;2023-02-02T09:38:40;99619.53;;;9.67;38.16
43488;BME280;29078;41.932;25.554;2023-02-02T09:52:37;99610.09;;;10.12;37.57
43488;BME280;29078;41.932;25.554;2023-02-02T09:57:43;99609.09;;;10.13;36.52
43488;BME280;29078;41.932;25.554;2023-02-02T10:02:44;99541.81;;;9.86;36.28
43488;BME280;29078;41.932;25.554;2023-02-02T10:05:23;99518.56;;;9.90;35.98
43488;BME280;29078;41.932;25.554;2023-02-02T10:07:53;99582.72;;;10.44;36.37
43488;BME280;29078;41.932;25.554;2023-02-02T10:10:31;99528.59;;;10.17;35.82
43488;BME280;29078;41.932;25.554;2023-02-02T10:13:05;99508.38;;;10.09;36.62
43488;BME280;29078;41.932;25.554;2023-02-02T10:15:40;99509.94;;;10.18;35.97
43488;BME280;29078;41.932;25.554;2023-02-02T10:18:33;99596.56;;;10.69;36.16
43488;BME280;29078;41.932;25.554;2023-02-02T10:21:03;99600.66;;;10.71;35.20
43488;BME280;29078;41.932;25.554;2023-02-02T10:23:49;99580.00;;;10.75;34.35
43488;BME280;29078;41.932;25.554;2023-02-02T10:29:11;99500.09;;;10.43;32.53
43488;BME280;29078;41.932;25.554;2023-02-02T10:35:02;99562.19;;;10.92;33.58
43488;BME280;29078;41.932;25.554;2023-02-02T10:48:40;99552.50;;;11.22;33.95
43488;BME280;29078;41.932;25.554;2023-02-02T10:53:45;99485.41;;;10.78;34.01
43488;BME280;29078;41.932;25.554;2023-02-02T10:56:29;99480.31;;;10.92;33.71
43488;BME280;29078;41.932;25.554;2023-02-02T11:01:24;99521.25;;;11.25;33.77
43488;BME280;29078;41.932;25.554;2023-02-02T11:03:50;99529.06;;;11.33;33.82
43488;BME280;29078;41.932;25.554;2023-02-02T11:06:35;99451.16;;;10.85;33.30
43488;BME280;29078;41.932;25.554;2023-02-02T11:09:16;99462.53;;;11.00;32.83
43488;BME280;29078;41.932;25.554;2023-02-02T11:11:42;99470.81;;;11.12;33.12
43488;BME280;29078;41.932;25.554;2023-02-02T11:14:16;99524.59;;;11.49;31.44
43488;BME280;29078;41.932;25.554;2023-02-02T11:16:44;99500.38;;;11.30;31.99
43488;BME280;29078;41.932;25.554;2023-02-02T11:19:31;99478.88;;;11.19;32.22
43488;BME280;29078;41.932;25.554;2023-02-02T11:22:00;99506.38;;;11.24;32.61
43488;BME280;29078;41.932;25.554;2023-02-02T11:24:31;99419.56;;;10.77;32.88
43488;BME280;29078;41.932;25.554;2023-02-02T11:27:05;99438.75;;;11.00;33.34
43488;BME280;29078;41.932;25.554;2023-02-02T11:32:17;99507.75;;;11.35;32.49
43488;BME280;29078;41.932;25.554;2023-02-02T11:34:43;99430.84;;;10.86;33.27
43488;BME280;29078;41.932;25.554;2023-02-02T11:37:20;99506.81;;;11.42;33.47
43488;BME280;29078;41.932;25.554;2023-02-02T11:39:46;99452.97;;;11.14;33.61
43488;BME280;29078;41.932;25.554;2023-02-02T11:42:17;99501.16;;;11.45;33.89
43488;BME280;29078;41.932;25.554;2023-02-02T11:44:49;99430.56;;;10.95;33.81
43488;BME280;29078;41.932;25.554;2023-02-02T11:47:33;99477.75;;;11.42;33.27
43488;BME280;29078;41.932;25.554;2023-02-02T11:50:02;99415.06;;;11.07;33.95
43488;BME280;29078;41.932;25.554;2023-02-02T11:52:30;99404.59;;;10.99;34.03
43488;BME280;29078;41.932;25.554;2023-02-02T11:54:59;99482.38;;;11.55;34.12
43488;BME280;29078;41.932;25.554;2023-02-02T11:57:27;99362.81;;;10.88;33.86
43488;BME280;29078;41.932;25.554;2023-02-02T12:00:16;99468.53;;;11.53;32.72
43488;BME280;29078;41.932;25.554;2023-02-02T12:02:47;99400.59;;;11.18;32.83
43488;BME280;29078;41.932;25.554;2023-02-02T12:07:45;99420.41;;;11.43;33.44
43488;BME280;29078;41.932;25.554;2023-02-02T12:16:07;99383.97;;;11.38;33.56
43488;BME280;29078;41.932;25.554;2023-02-02T12:26:49;99382.44;;;11.29;33.95
43488;BME280;29078;41.932;25.554;2023-02-02T12:29:39;99315.28;;;10.88;33.09
43488;BME280;29078;41.932;25.554;2023-02-02T12:37:34;99434.72;;;11.70;34.17
43488;BME280;29078;41.932;25.554;2023-02-02T12:48:39;99439.16;;;11.84;33.18
43488;BME280;29078;41.932;25.554;2023-02-02T12:54:35;99424.50;;;11.82;32.78
43488;BME280;29078;41.932;25.554;2023-02-02T13:08:03;99439.63;;;11.73;33.36
43488;BME280;29078;41.932;25.554;2023-02-02T13:10:34;99410.53;;;11.73;33.36
43488;BME280;29078;41.932;25.554;2023-02-02T13:13:21;99411.38;;;11.73;33.38
43488;BME280;29078;41.932;25.554;2023-02-02T13:15:53;99352.81;;;11.34;33.71
43488;BME280;29078;41.932;25.554;2023-02-02T13:18:28;99380.38;;;11.46;33.44
43488;BME280;29078;41.932;25.554;2023-02-02T13:21:01;99375.97;;;11.53;33.93
43488;BME280;29078;41.932;25.554;2023-02-02T13:23:33;99400.78;;;11.73;33.75
43488;BME280;29078;41.932;25.554;2023-02-02T13:26:02;99400.72;;;11.67;33.41
43488;BME280;29078;41.932;25.554;2023-02-02T13:28:45;99398.16;;;11.73;33.25
43488;BME280;29078;41.932;25.554;2023-02-02T13:31:19;99392.84;;;11.73;32.84
43488;BME280;29078;41.932;25.554;2023-02-02T13:33:53;99382.34;;;11.59;33.54
43488;BME280;29078;41.932;25.554;2023-02-02T13:36:22;99330.47;;;11.36;33.27
43488;BME280;29078;41.932;25.554;2023-02-02T13:38:54;99398.59;;;11.77;32.83
43488;BME280;29078;41.932;25.554;2023-02-02T13:41:21;99310.00;;;11.24;32.75
43488;BME280;29078;41.932;25.554;2023-02-02T13:44:04;99339.47;;;11.42;32.06
43488;BME280;29078;41.932;25.554;2023-02-02T13:49:59;99392.31;;;11.78;33.51
43488;BME280;29078;41.932;25.554;2023-02-02T13:53:27;99317.75;;;11.25;33.37
43488;BME280;29078;41.932;25.554;2023-02-02T14:00:40;99387.03;;;11.78;33.67
43488;BME280;29078;41.932;25.554;2023-02-02T14:06:04;99339.41;;;11.57;33.70
43488;BME280;29078;41.932;25.554;2023-02-02T14:08:30;99295.22;;;11.29;34.07
43488;BME280;29078;41.932;25.554;2023-02-02T14:10:58;99298.88;;;11.28;33.80
43488;BME280;29078;41.932;25.554;2023-02-02T14:13:48;99364.31;;;11.69;33.83
43488;BME280;29078;41.932;25.554;2023-02-02T14:19:13;99255.78;;;11.13;34.58
43488;BME280;29078;41.932;25.554;2023-02-02T14:26:57;99368.13;;;11.81;34.01
43488;BME280;29078;41.932;25.554;2023-02-02T14:34:48;99365.28;;;11.61;34.83
43488;BME280;29078;41.932;25.554;2023-02-02T14:40:24;99376.44;;;11.78;34.40
43488;BME280;29078;41.932;25.554;2023-02-02T14:48:32;99290.63;;;11.17;33.90
43488;BME280;29078;41.932;25.554;2023-02-02T14:51:00;99309.31;;;11.15;33.19
43488;BME280;29078;41.932;25.554;2023-02-02T14:53:31;99361.13;;;11.52;33.02
43488;BME280;29078;41.932;25.554;2023-02-02T14:56:06;99333.97;;;11.22;32.63
43488;BME280;29078;41.932;25.554;2023-02-02T15:03:45;99390.31;;;11.44;32.92
43488;BME280;29078;41.932;25.554;2023-02-02T15:22:59;99436.03;;;11.08;34.31
43488;BME280;29078;41.932;25.554;2023-02-02T15:25:49;99437.22;;;11.06;35.94
43488;BME280;29078;41.932;25.554;2023-02-02T15:28:24;99345.41;;;10.34;35.96
43488;BME280;29078;41.932;25.554;2023-02-02T15:33:44;99430.84;;;10.86;35.99
43488;BME280;29078;41.932;25.554;2023-02-02T15:36:21;99335.22;;;10.31;36.17
43488;BME280;29078;41.932;25.554;2023-02-02T15:38:51;99389.22;;;10.58;36.66
43488;BME280;29078;41.932;25.554;2023-02-02T15:41:21;99429.66;;;10.73;36.29
43488;BME280;29078;41.932;25.554;2023-02-02T15:43:48;99434.03;;;10.66;36.46
43488;BME280;29078;41.932;25.554;2023-02-02T15:46:19;99342.19;;;10.09;36.51
43488;BME280;29078;41.932;25.554;2023-02-02T15:51:54;99403.59;;;10.41;37.45
43488;BME280;29078;41.932;25.554;2023-02-02T15:54:22;99383.16;;;10.20;37.54
43488;BME280;29078;41.932;25.554;2023-02-02T15:56:49;99434.66;;;10.54;37.57
43488;BME280;29078;41.932;25.554;2023-02-02T15:59:23;99367.75;;;10.09;37.57
43488;BME280;29078;41.932;25.554;2023-02-02T16:04:34;99423.66;;;10.27;37.52
43488;BME280;29078;41.932;25.554;2023-02-02T16:07:03;99429.66;;;10.21;37.74
43488;BME280;29078;41.932;25.554;2023-02-02T16:09:33;99484.53;;;10.48;37.91